createdAt,value
2022-12-12T05:15:24.920Z,0.373
2022-12-12T06:08:22.187Z,0.373
2022-12-12T06:12:59.689Z,0.373
2022-12-12T06:24:54.082Z,0.747
2022-12-12T06:28:38.528Z,1.494
2022-12-12T06:31:12.242Z,2.241
2022-12-12T06:33:54.937Z,2.988
2022-12-12T06:36:53.526Z,5.229
2022-12-12T06:39:36.780Z,7.843
2022-12-12T06:42:35.363Z,11.578
2022-12-12T06:45:23.711Z,15.687
2022-12-12T06:47:56.757Z,19.795
2022-12-12T06:50:55.325Z,26.145
2022-12-12T06:54:14.267Z,34.362
2022-12-12T06:57:02.584Z,44.82
2022-12-12T06:59:40.793Z,54.531
2022-12-12T07:02:30.145Z,66.856
2022-12-12T07:05:02.333Z,84.037
2022-12-12T07:07:40.462Z,103.833
2022-12-12T07:10:13.438Z,120.267
2022-12-12T07:13:57.940Z,156.123
2022-12-12T07:16:31.008Z,172.557
2022-12-12T07:19:04.145Z,195.714
2022-12-12T07:21:37.166Z,230.076
2022-12-12T07:24:25.552Z,283.86
2022-12-12T07:28:04.872Z,352.584
2022-12-12T07:30:53.279Z,388.44
2022-12-12T07:33:43.389Z,421.308
2022-12-12T07:36:14.730Z,445.212
2022-12-12T07:38:52.982Z,496.008
2022-12-12T07:41:36.334Z,540.828
2022-12-12T07:44:29.776Z,606.564
2022-12-12T07:47:07.966Z,651.384
2022-12-12T07:49:46.164Z,681.264
2022-12-12T07:52:39.708Z,705.168
2022-12-12T07:55:58.637Z,755.964
2022-12-12T07:58:36.807Z,830.664
2022-12-12T08:01:45.586Z,842.616
2022-12-12T08:04:33.946Z,884.448
2022-12-12T08:07:17.219Z,860.544
2022-12-12T08:10:20.981Z,902.376
2022-12-12T08:13:04.256Z,974.088
2022-12-12T08:15:37.346Z,1057.752
2022-12-12T08:18:20.665Z,1141.416
2022-12-12T08:21:25.951Z,1284.84
2022-12-12T08:24:07.598Z,1326.672
2022-12-12T08:26:45.817Z,1482.048
2022-12-12T08:29:39.232Z,1386.432
2022-12-12T08:32:17.460Z,1494
2022-12-12T08:34:50.525Z,1601.568
2022-12-12T08:37:38.956Z,1565.712
2022-12-12T08:40:12.096Z,1709.136
2022-12-12T08:42:45.193Z,1828.656
2022-12-12T08:45:28.475Z,1864.512
2022-12-12T08:48:11.797Z,1960.128
2022-12-12T08:50:44.863Z,1912.32
2022-12-12T08:53:17.996Z,1972.08
2022-12-12T08:56:21.703Z,1948.176
2022-12-12T08:59:00.000Z,1792.8
2022-12-12T09:02:29.261Z,2031.84
2022-12-12T09:05:22.641Z,1960.128
2022-12-12T09:08:05.951Z,1744.992
2022-12-12T09:10:54.346Z,1744.992
2022-12-12T09:13:27.462Z,1780.848
2022-12-12T09:16:31.225Z,1828.656
2022-12-12T09:19:19.540Z,1912.32
2022-12-12T09:21:52.617Z,1864.512
2022-12-12T09:24:35.902Z,1864.512
2022-12-12T09:27:24.333Z,1888.416
2022-12-12T09:30:12.777Z,1900.368
2022-12-12T09:33:50.815Z,1936.224
2022-12-12T09:36:29.007Z,1924.272
2022-12-12T09:39:02.073Z,2031.84
2022-12-12T09:42:00.808Z,2199.168
2022-12-12T09:45:04.377Z,2438.208
2022-12-12T09:48:02.900Z,2426.256
2022-12-12T09:50:51.358Z,2545.776
2022-12-12T09:53:29.711Z,2581.632
2022-12-12T09:56:07.846Z,2474.064
2022-12-12T09:58:49.152Z,2545.776
2022-12-12T10:01:24.265Z,2605.536
2022-12-12T10:03:57.377Z,2701.152
2022-12-12T10:08:07.448Z,2725.056
2022-12-12T10:10:50.675Z,2772.864
2022-12-12T10:13:44.090Z,2784.816
2022-12-12T10:16:51.203Z,2701.152
2022-12-12T10:19:41.301Z,2820.672
2022-12-12T10:23:15.621Z,2844.576
2022-12-12T10:25:53.826Z,2844.576
2022-12-12T10:28:26.835Z,2916.288
2022-12-12T10:31:51.004Z,3011.904
2022-12-12T10:34:44.443Z,2952.144
2022-12-12T10:37:17.542Z,3023.856
2022-12-12T10:39:55.756Z,3250.944
2022-12-12T10:42:54.302Z,3466.08
2022-12-12T10:45:52.926Z,3466.08
2022-12-12T10:48:51.504Z,3346.56
2022-12-12T10:51:34.785Z,3346.56
2022-12-12T10:54:18.065Z,3322.656
2022-12-12T10:56:51.165Z,3370.464
2022-12-12T10:59:24.294Z,3418.272
2022-12-12T11:02:10.323Z,3513.888
2022-12-12T11:04:40.604Z,3442.176
2022-12-12T11:07:44.310Z,3466.08
2022-12-12T11:10:32.104Z,3633.408
2022-12-12T11:13:41.420Z,3848.544
2022-12-12T11:16:29.855Z,3752.928
2022-12-12T11:19:08.061Z,3752.928
2022-12-12T11:21:41.048Z,3752.928
2022-12-12T11:24:14.180Z,3729.024
2022-12-12T11:26:57.416Z,3729.024
2022-12-12T11:29:50.990Z,3752.928
2022-12-12T11:32:29.081Z,3513.888
2022-12-12T11:35:12.741Z,3418.272
2022-12-12T11:38:00.787Z,3274.848
2022-12-12T11:41:19.756Z,3227.04
2022-12-12T11:44:43.892Z,3250.944
2022-12-12T11:47:42.475Z,3131.424
2022-12-12T11:50:20.698Z,3011.904
2022-12-12T11:53:49.883Z,2988
2022-12-12T11:57:03.744Z,3131.424
2022-12-12T11:59:52.086Z,3418.272
2022-12-12T12:03:00.929Z,3633.408
2022-12-12T12:05:49.283Z,3418.272
2022-12-12T12:09:23.483Z,3107.52
2022-12-12T12:13:18.128Z,3083.616
2022-12-12T12:16:47.448Z,2999.952
2022-12-12T12:19:30.725Z,2737.008
2022-12-12T12:22:29.349Z,2497.968
2022-12-12T12:25:22.856Z,2318.688
2022-12-12T12:28:47.001Z,2175.264
2022-12-12T12:31:40.492Z,2115.504
2022-12-12T12:35:15.051Z,2115.504
2022-12-12T12:38:08.314Z,2007.936
2022-12-12T12:40:46.571Z,1936.224
2022-12-12T12:43:40.024Z,2007.936
2022-12-12T12:46:18.301Z,1984.032
2022-12-12T12:49:06.705Z,1864.512
2022-12-12T12:52:10.399Z,1780.848
2022-12-12T12:56:10.283Z,1864.512
2022-12-12T12:58:43.391Z,1888.416
2022-12-12T13:01:26.696Z,1780.848
2022-12-12T13:04:30.392Z,1721.088
2022-12-12T13:07:08.631Z,1625.472
2022-12-12T13:09:57.015Z,1446.192
2022-12-12T13:12:30.172Z,1470.096
2022-12-12T13:15:13.397Z,1446.192
2022-12-12T13:17:56.684Z,1440.216
2022-12-12T13:20:29.747Z,1278.864
2022-12-12T13:23:07.917Z,1189.224
2022-12-12T13:25:51.137Z,1171.296
2022-12-12T13:28:24.302Z,1129.464
2022-12-12T13:31:04.688Z,1093.608
2022-12-12T13:33:55.968Z,920.304
2022-12-12T13:36:30.129Z,836.64
2022-12-12T13:39:07.385Z,806.76
2022-12-12T13:41:40.447Z,824.688
2022-12-12T13:44:28.839Z,848.592
2022-12-12T13:47:17.183Z,902.376
2022-12-12T13:50:20.890Z,986.04
2022-12-12T13:53:09.220Z,896.4
2022-12-12T13:56:33.270Z,962.136
2022-12-12T13:59:11.425Z,974.088
2022-12-12T14:01:54.798Z,992.016
2022-12-12T14:04:58.380Z,956.16
2022-12-12T14:07:56.455Z,920.304
2022-12-12T14:10:39.792Z,938.232
2022-12-12T14:13:48.600Z,932.256
2022-12-12T14:19:15.115Z,854.568
2022-12-12T14:24:14.932Z,723.096
2022-12-12T14:26:53.223Z,660.348
2022-12-12T14:29:31.433Z,618.516
2022-12-12T14:32:14.668Z,570.708
2022-12-12T14:34:57.908Z,510.948
2022-12-12T14:38:16.862Z,424.296
2022-12-12T14:41:56.208Z,394.416
2022-12-12T14:45:40.739Z,373.5
2022-12-12T14:48:34.125Z,346.608
2022-12-12T14:51:07.239Z,325.692
2022-12-12T14:53:55.500Z,301.788
2022-12-12T14:57:09.373Z,250.992
2022-12-12T15:01:14.193Z,185.256
2022-12-12T15:03:47.366Z,165.834
2022-12-12T15:06:40.692Z,133.713
2022-12-12T15:09:24.010Z,97.11
2022-12-12T15:12:07.238Z,70.218
2022-12-12T15:15:05.857Z,48.181
2022-12-12T15:18:04.339Z,35.109
2022-12-12T15:20:47.654Z,25.398
2022-12-12T15:26:34.488Z,12.699
2022-12-12T15:29:22.782Z,8.964
2022-12-12T15:32:16.456Z,5.229
2022-12-12T15:35:14.812Z,2.614
2022-12-12T15:37:52.988Z,1.494
2022-12-12T15:40:41.330Z,0.747
2022-12-12T15:52:55.913Z,0
